sensor_id;sensor_type;location;lat;lon;timestamp;pressure;altitude;pressure_sealevel;temperature;humidity
63881;BME280;50046;46.672;11.152;2022-09-09T00:00:15;97885.63;;;19.29;69.55
63881;BME280;50046;46.672;11.152;2022-09-09T00:00:32;97883.69;;;19.30;69.62
63881;BME280;50046;46.672;11.152;2022-09-09T00:00:54;97877.41;;;19.29;69.67
63881;BME280;50046;46.672;11.152;2022-09-09T00:01:08;97880.16;;;19.29;69.76
63881;BME280;50046;46.672;11.152;2022-09-09T00:01:52;97881.78;;;19.30;69.61
63881;BME280;50046;46.672;11.152;2022-09-09T00:02:22;97878.19;;;19.30;69.82
63881;BME280;50046;46.672;11.152;2022-09-09T00:02:34;97875.47;;;19.30;69.85
63881;BME280;50046;46.672;11.152;2022-09-09T00:02:53;97881.28;;;19.28;70.16
63881;BME280;50046;46.672;11.152;2022-09-09T00:03:25;97884.03;;;19.28;70.26
63881;BME280;50046;46.672;11.152;2022-09-09T00:03:44;97874.19;;;19.27;70.44
63881;BME280;50046;46.672;11.152;2022-09-09T00:04:03;97875.81;;;19.28;70.57
63881;BME280;50046;46.672;11.152;2022-09-09T00:04:35;97877.25;;;19.26;70.86
63881;BME280;50046;46.672;11.152;2022-09-09T00:04:59;97871.00;;;19.25;70.87
63881;BME280;50046;46.672;11.152;2022-09-09T00:05:48;97870.50;;;19.23;71.25
63881;BME280;50046;46.672;11.152;2022-09-09T00:06:18;97877.09;;;19.22;71.37
63881;BME280;50046;46.672;11.152;2022-09-09T00:06:42;97868.72;;;19.19;71.66
63881;BME280;50046;46.672;11.152;2022-09-09T00:07:36;97871.94;;;19.21;71.38
63881;BME280;50046;46.672;11.152;2022-09-09T00:07:48;97877.91;;;19.23;71.64
63881;BME280;50046;46.672;11.152;2022-09-09T00:08:02;97870.50;;;19.15;71.73
63881;BME280;50046;46.672;11.152;2022-09-09T00:08:22;97878.38;;;19.16;72.11
63881;BME280;50046;46.672;11.152;2022-09-09T00:09:00;97867.94;;;19.18;72.22
63881;BME280;50046;46.672;11.152;2022-09-09T00:09:18;97871.78;;;19.17;71.71
63881;BME280;50046;46.672;11.152;2022-09-09T00:09:40;97873.22;;;19.15;72.21
63881;BME280;50046;46.672;11.152;2022-09-09T00:10:18;97871.78;;;19.17;71.94
63881;BME280;50046;46.672;11.152;2022-09-09T00:10:37;97873.88;;;19.20;71.79
63881;BME280;50046;46.672;11.152;2022-09-09T00:10:58;97872.44;;;19.23;71.74
63881;BME280;50046;46.672;11.152;2022-09-09T00:11:12;97870.81;;;19.22;71.76
63881;BME280;50046;46.672;11.152;2022-09-09T00:11:40;97870.50;;;19.23;71.95
63881;BME280;50046;46.672;11.152;2022-09-09T00:12:00;97874.34;;;19.22;72.09
63881;BME280;50046;46.672;11.152;2022-09-09T00:12:33;97876.63;;;19.20;72.11
63881;BME280;50046;46.672;11.152;2022-09-09T00:13:41;97866.00;;;19.10;71.68
63881;BME280;50046;46.672;11.152;2022-09-09T00:13:57;97863.59;;;19.08;72.00
63881;BME280;50046;46.672;11.152;2022-09-09T00:14:26;97865.53;;;19.08;71.61
63881;BME280;50046;46.672;11.152;2022-09-09T00:14:45;97861.50;;;19.05;71.43
63881;BME280;50046;46.672;11.152;2022-09-09T00:15:13;97867.28;;;19.04;71.09
63881;BME280;50046;46.672;11.152;2022-09-09T00:15:39;97861.97;;;19.07;71.09
63881;BME280;50046;46.672;11.152;2022-09-09T00:15:56;97867.47;;;19.07;70.91
63881;BME280;50046;46.672;11.152;2022-09-09T00:16:22;97863.28;;;19.10;70.73
63881;BME280;50046;46.672;11.152;2022-09-09T00:16:38;97862.44;;;19.09;70.85
63881;BME280;50046;46.672;11.152;2022-09-09T00:16:56;97856.66;;;19.11;71.01
63881;BME280;50046;46.672;11.152;2022-09-09T00:17:24;97861.47;;;19.14;70.77
63881;BME280;50046;46.672;11.152;2022-09-09T00:17:49;97863.56;;;19.17;70.92
63881;BME280;50046;46.672;11.152;2022-09-09T00:18:25;97857.28;;;19.17;71.17
63881;BME280;50046;46.672;11.152;2022-09-09T00:19:56;97854.25;;;19.18;71.19
63881;BME280;50046;46.672;11.152;2022-09-09T00:20:22;97853.28;;;19.14;71.47
63881;BME280;50046;46.672;11.152;2022-09-09T00:20:53;97854.91;;;19.15;71.94
63881;BME280;50046;46.672;11.152;2022-09-09T00:21:14;97854.41;;;19.13;72.09
63881;BME280;50046;46.672;11.152;2022-09-09T00:21:36;97857.28;;;19.17;72.24
63881;BME280;50046;46.672;11.152;2022-09-09T00:21:58;97851.03;;;19.16;71.99
63881;BME280;50046;46.672;11.152;2022-09-09T00:22:22;97851.81;;;19.17;72.22
63881;BME280;50046;46.672;11.152;2022-09-09T00:22:33;97853.59;;;19.21;72.00
63881;BME280;50046;46.672;11.152;2022-09-09T00:22:53;97849.09;;;19.25;72.73
63881;BME280;50046;46.672;11.152;2022-09-09T00:23:24;97853.72;;;19.25;72.90
63881;BME280;50046;46.672;11.152;2022-09-09T00:23:39;97851.66;;;19.22;73.60
63881;BME280;50046;46.672;11.152;2022-09-09T00:23:54;97850.38;;;19.19;73.67
63881;BME280;50046;46.672;11.152;2022-09-09T00:24:24;97851.50;;;19.18;74.19
63881;BME280;50046;46.672;11.152;2022-09-09T00:24:46;97852.78;;;19.21;74.49
63881;BME280;50046;46.672;11.152;2022-09-09T00:25:10;97852.31;;;19.19;74.46
63881;BME280;50046;46.672;11.152;2022-09-09T00:26:31;97846.03;;;19.18;74.15
63881;BME280;50046;46.672;11.152;2022-09-09T00:26:48;97844.25;;;19.14;73.76
63881;BME280;50046;46.672;11.152;2022-09-09T00:27:06;97847.31;;;19.12;73.60
63881;BME280;50046;46.672;11.152;2022-09-09T00:27:26;97851.19;;;19.11;73.86
63881;BME280;50046;46.672;11.152;2022-09-09T00:27:50;97847.66;;;19.10;73.71
63881;BME280;50046;46.672;11.152;2022-09-09T00:28:00;97850.38;;;19.10;73.75
63881;BME280;50046;46.672;11.152;2022-09-09T00:28:19;97848.13;;;19.04;72.26
63881;BME280;50046;46.672;11.152;2022-09-09T00:28:30;97845.88;;;19.06;72.26
63881;BME280;50046;46.672;11.152;2022-09-09T00:29:05;97844.28;;;19.05;71.69
63881;BME280;50046;46.672;11.152;2022-09-09T00:29:35;97844.28;;;19.05;71.42
63881;BME280;50046;46.672;11.152;2022-09-09T00:29:57;97844.09;;;19.01;71.76
63881;BME280;50046;46.672;11.152;2022-09-09T00:30:31;97843.94;;;18.98;71.73
63881;BME280;50046;46.672;11.152;2022-09-09T00:30:44;97843.16;;;18.97;71.21
63881;BME280;50046;46.672;11.152;2022-09-09T00:31:01;97847.50;;;18.98;71.44
63881;BME280;50046;46.672;11.152;2022-09-09T00:31:23;97844.44;;;19.00;71.11
63881;BME280;50046;46.672;11.152;2022-09-09T00:31:35;97842.50;;;19.00;71.28
63881;BME280;50046;46.672;11.152;2022-09-09T00:31:47;97844.75;;;18.98;70.91
63881;BME280;50046;46.672;11.152;2022-09-09T00:32:04;97843.31;;;19.01;71.08
63881;BME280;50046;46.672;11.152;2022-09-09T00:32:18;97844.09;;;19.01;71.15
63881;BME280;50046;46.672;11.152;2022-09-09T00:32:30;97849.09;;;18.99;70.67
63881;BME280;50046;46.672;11.152;2022-09-09T00:32:44;97844.44;;;19.00;71.33
63881;BME280;50046;46.672;11.152;2022-09-09T00:32:58;97844.75;;;18.98;71.11
63881;BME280;50046;46.672;11.152;2022-09-09T00:33:11;97845.56;;;18.99;70.82
63881;BME280;50046;46.672;11.152;2022-09-09T00:33:26;97842.31;;;18.97;71.12
63881;BME280;50046;46.672;11.152;2022-09-09T00:33:37;97844.59;;;18.95;71.14
63881;BME280;50046;46.672;11.152;2022-09-09T00:33:49;97846.19;;;18.96;71.08
63881;BME280;50046;46.672;11.152;2022-09-09T00:34:21;97846.69;;;18.98;71.11
63881;BME280;50046;46.672;11.152;2022-09-09T00:34:32;97843.94;;;18.98;70.98
63881;BME280;50046;46.672;11.152;2022-09-09T00:34:49;97842.31;;;18.97;71.13
63881;BME280;50046;46.672;11.152;2022-09-09T00:35:17;97840.88;;;18.90;71.04
63881;BME280;50046;46.672;11.152;2022-09-09T00:35:38;97847.81;;;18.88;71.17
63881;BME280;50046;46.672;11.152;2022-09-09T00:36:13;97847.50;;;18.89;71.43
63881;BME280;50046;46.672;11.152;2022-09-09T00:36:26;97848.63;;;18.88;71.30
63881;BME280;50046;46.672;11.152;2022-09-09T00:36:40;97851.19;;;18.94;71.57
63881;BME280;50046;46.672;11.152;2022-09-09T00:36:52;97852.31;;;18.93;71.50
63881;BME280;50046;46.672;11.152;2022-09-09T00:37:03;97851.69;;;18.96;71.35
63881;BME280;50046;46.672;11.152;2022-09-09T00:37:15;97850.88;;;18.95;71.03
63881;BME280;50046;46.672;11.152;2022-09-09T00:37:26;97847.66;;;18.93;70.88
63881;BME280;50046;46.672;11.152;2022-09-09T00:37:38;97844.91;;;18.93;71.12
63881;BME280;50046;46.672;11.152;2022-09-09T00:37:52;97852.31;;;18.93;71.08
63881;BME280;50046;46.672;11.152;2022-09-09T00:38:23;97852.81;;;18.95;71.28
63881;BME280;50046;46.672;11.152;2022-09-09T00:38:42;97854.56;;;18.99;71.32
63881;BME280;50046;46.672;11.152;2022-09-09T00:38:58;97854.09;;;18.97;71.15
63881;BME280;50046;46.672;11.152;2022-09-09T00:39:27;97852.16;;;18.98;71.58
63881;BME280;50046;46.672;11.152;2022-09-09T00:39:43;97849.72;;;18.96;71.64
63881;BME280;50046;46.672;11.152;2022-09-09T00:39:59;97853.28;;;18.97;71.74
63881;BME280;50046;46.672;11.152;2022-09-09T00:40:41;97853.75;;;18.99;71.91
63881;BME280;50046;46.672;11.152;2022-09-09T00:41:51;97859.56;;;18.97;71.51
63881;BME280;50046;46.672;11.152;2022-09-09T00:42:31;97846.69;;;18.98;71.26
63881;BME280;50046;46.672;11.152;2022-09-09T00:43:35;97853.44;;;19.00;71.30
63881;BME280;50046;46.672;11.152;2022-09-09T00:43:38;97853.44;;;19.00;71.34
63881;BME280;50046;46.672;11.152;2022-09-09T00:43:57;97848.28;;;18.99;70.77
63881;BME280;50046;46.672;11.152;2022-09-09T00:44:34;97860.84;;;19.00;70.96
63881;BME280;50046;46.672;11.152;2022-09-09T00:45:37;97848.78;;;19.01;70.74
63881;BME280;50046;46.672;11.152;2022-09-09T00:47:35;97853.59;;;18.95;69.88
63881;BME280;50046;46.672;11.152;2022-09-09T00:47:53;97852.31;;;18.93;70.43
63881;BME280;50046;46.672;11.152;2022-09-09T00:48:10;97857.78;;;18.93;70.95
63881;BME280;50046;46.672;11.152;2022-09-09T00:48:27;97855.84;;;18.93;70.74
63881;BME280;50046;46.672;11.152;2022-09-09T00:49:42;97861.97;;;18.99;70.77
63881;BME280;50046;46.672;11.152;2022-09-09T00:50:35;97852.81;;;19.03;70.88
63881;BME280;50046;46.672;11.152;2022-09-09T00:50:53;97851.34;;;19.06;71.04
63881;BME280;50046;46.672;11.152;2022-09-09T00:51:15;97855.22;;;19.05;71.07
63881;BME280;50046;46.672;11.152;2022-09-09T00:51:35;97854.88;;;19.06;71.50
63881;BME280;50046;46.672;11.152;2022-09-09T00:52:32;97849.25;;;19.11;73.08
63881;BME280;50046;46.672;11.152;2022-09-09T00:53:08;97846.19;;;19.13;73.21
63881;BME280;50046;46.672;11.152;2022-09-09T00:54:03;97846.03;;;19.18;73.35
63881;BME280;50046;46.672;11.152;2022-09-09T00:55:07;97845.38;;;19.21;72.87
63881;BME280;50046;46.672;11.152;2022-09-09T00:56:12;97852.97;;;19.16;72.76
63881;BME280;50046;46.672;11.152;2022-09-09T00:56:31;97851.03;;;19.16;72.59
63881;BME280;50046;46.672;11.152;2022-09-09T00:56:53;97850.03;;;19.12;72.23
63881;BME280;50046;46.672;11.152;2022-09-09T00:57:16;97853.59;;;19.13;71.92
63881;BME280;50046;46.672;11.152;2022-09-09T00:57:32;97848.75;;;19.09;72.17
63881;BME280;50046;46.672;11.152;2022-09-09T00:57:42;97845.88;;;19.06;71.72
63881;BME280;50046;46.672;11.152;2022-09-09T00:57:56;97844.28;;;19.05;71.96
63881;BME280;50046;46.672;11.152;2022-09-09T00:58:08;97848.13;;;19.04;72.06
63881;BME280;50046;46.672;11.152;2022-09-09T00:58:18;97852.00;;;19.03;71.98
63881;BME280;50046;46.672;11.152;2022-09-09T00:58:29;97851.66;;;19.04;71.85
63881;BME280;50046;46.672;11.152;2022-09-09T00:58:43;97843.94;;;19.06;71.95
63881;BME280;50046;46.672;11.152;2022-09-09T00:59:52;97850.03;;;19.12;72.12
63881;BME280;50046;46.672;11.152;2022-09-09T01:00:29;97848.13;;;19.13;72.07
63881;BME280;50046;46.672;11.152;2022-09-09T01:00:52;97849.72;;;19.14;72.02
63881;BME280;50046;46.672;11.152;2022-09-09T01:01:09;97843.47;;;19.13;71.91
63881;BME280;50046;46.672;11.152;2022-09-09T01:01:21;97847.00;;;19.14;71.75
63881;BME280;50046;46.672;11.152;2022-09-09T01:01:32;97847.00;;;19.14;71.31
63881;BME280;50046;46.672;11.152;2022-09-09T01:01:42;97844.56;;;19.12;71.20
63881;BME280;50046;46.672;11.152;2022-09-09T01:01:53;97849.25;;;19.11;71.31
63881;BME280;50046;46.672;11.152;2022-09-09T01:02:16;97847.31;;;19.12;71.08
63881;BME280;50046;46.672;11.152;2022-09-09T01:03:47;97852.94;;;19.07;71.00
63881;BME280;50046;46.672;11.152;2022-09-09T01:03:59;97845.06;;;19.05;71.05
63881;BME280;50046;46.672;11.152;2022-09-09T01:04:16;97842.19;;;19.10;70.91
63881;BME280;50046;46.672;11.152;2022-09-09T01:04:33;97848.44;;;19.11;70.43
63881;BME280;50046;46.672;11.152;2022-09-09T01:04:46;97847.66;;;19.10;70.79
63881;BME280;50046;46.672;11.152;2022-09-09T01:05:20;97844.56;;;19.12;70.93
63881;BME280;50046;46.672;11.152;2022-09-09T01:06:32;97850.22;;;19.16;72.29
63881;BME280;50046;46.672;11.152;2022-09-09T01:06:45;97851.03;;;19.16;72.22
63881;BME280;50046;46.672;11.152;2022-09-09T01:07:16;97843.13;;;19.15;72.01
63881;BME280;50046;46.672;11.152;2022-09-09T01:07:27;97853.28;;;19.14;72.35
63881;BME280;50046;46.672;11.152;2022-09-09T01:07:38;97847.78;;;19.14;72.49
63881;BME280;50046;46.672;11.152;2022-09-09T01:07:50;97851.03;;;19.16;72.33
63881;BME280;50046;46.672;11.152;2022-09-09T01:08:04;97850.22;;;19.16;72.21
63881;BME280;50046;46.672;11.152;2022-09-09T01:08:59;97853.44;;;19.18;72.67
63881;BME280;50046;46.672;11.152;2022-09-09T01:09:57;97850.38;;;19.10;72.43
63881;BME280;50046;46.672;11.152;2022-09-09T01:10:23;97844.59;;;19.03;72.23
63881;BME280;50046;46.672;11.152;2022-09-09T01:10:49;97851.97;;;18.94;71.95
63881;BME280;50046;46.672;11.152;2022-09-09T01:11:00;97853.28;;;18.88;72.32
63881;BME280;50046;46.672;11.152;2022-09-09T01:11:21;97847.19;;;18.82;72.40
63881;BME280;50046;46.672;11.152;2022-09-09T01:11:42;97854.25;;;18.92;72.40
63881;BME280;50046;46.672;11.152;2022-09-09T01:12:16;97845.56;;;18.99;72.47
63881;BME280;50046;46.672;11.152;2022-09-09T01:12:39;97853.59;;;18.95;72.64
63881;BME280;50046;46.672;11.152;2022-09-09T01:12:52;97847.31;;;19.03;72.58
63881;BME280;50046;46.672;11.152;2022-09-09T01:13:13;97845.72;;;19.02;72.35
63881;BME280;50046;46.672;11.152;2022-09-09T01:13:29;97841.84;;;19.03;72.34
63881;BME280;50046;46.672;11.152;2022-09-09T01:13:42;97850.06;;;19.03;72.15
63881;BME280;50046;46.672;11.152;2022-09-09T01:14:03;97848.31;;;19.07;72.08
63881;BME280;50046;46.672;11.152;2022-09-09T01:14:51;97854.72;;;19.03;71.94
63881;BME280;50046;46.672;11.152;2022-09-09T01:15:08;97852.16;;;18.98;71.82
63881;BME280;50046;46.672;11.152;2022-09-09T01:15:24;97845.06;;;18.97;72.19
63881;BME280;50046;46.672;11.152;2022-09-09T01:15:36;97847.19;;;19.00;72.73
63881;BME280;50046;46.672;11.152;2022-09-09T01:15:49;97847.97;;;19.00;72.73
63881;BME280;50046;46.672;11.152;2022-09-09T01:16:04;97843.94;;;18.98;72.61
63881;BME280;50046;46.672;11.152;2022-09-09T01:16:16;97843.16;;;18.97;72.80
63881;BME280;50046;46.672;11.152;2022-09-09T01:16:29;97846.19;;;18.96;72.72
63881;BME280;50046;46.672;11.152;2022-09-09T01:16:40;97844.25;;;18.96;72.78
63881;BME280;50046;46.672;11.152;2022-09-09T01:16:54;97846.19;;;18.96;73.06
63881;BME280;50046;46.672;11.152;2022-09-09T01:17:27;97850.88;;;18.95;73.13
63881;BME280;50046;46.672;11.152;2022-09-09T01:18:04;97845.72;;;18.94;73.29
63881;BME280;50046;46.672;11.152;2022-09-09T01:18:18;97847.66;;;18.93;73.75
63881;BME280;50046;46.672;11.152;2022-09-09T01:18:34;97847.66;;;18.93;73.68
63881;BME280;50046;46.672;11.152;2022-09-09T01:18:49;97842.19;;;18.93;74.12
63881;BME280;50046;46.672;11.152;2022-09-09T01:19:07;97851.97;;;18.94;73.99
63881;BME280;50046;46.672;11.152;2022-09-09T01:19:32;97841.88;;;18.95;74.04
63881;BME280;50046;46.672;11.152;2022-09-09T01:19:50;97848.94;;;18.96;73.99
63881;BME280;50046;46.672;11.152;2022-09-09T01:20:27;97852.81;;;18.95;74.18
63881;BME280;50046;46.672;11.152;2022-09-09T01:20:53;97845.41;;;18.95;73.96
63881;BME280;50046;46.672;11.152;2022-09-09T01:21:33;97844.13;;;18.93;73.92
63881;BME280;50046;46.672;11.152;2022-09-09T01:21:58;97847.34;;;18.95;74.24
63881;BME280;50046;46.672;11.152;2022-09-09T01:23:51;97847.97;;;18.92;73.88
63881;BME280;50046;46.672;11.152;2022-09-09T01:24:42;97849.75;;;18.87;74.73
63881;BME280;50046;46.672;11.152;2022-09-09T01:26:10;97848.28;;;18.81;74.99
63881;BME280;50046;46.672;11.152;2022-09-09T01:26:27;97847.00;;;18.79;75.20
63881;BME280;50046;46.672;11.152;2022-09-09T01:26:44;97849.28;;;18.77;75.02
63881;BME280;50046;46.672;11.152;2022-09-09T01:27:03;97856.66;;;18.76;75.35
63881;BME280;50046;46.672;11.152;2022-09-09T01:27:16;97851.19;;;18.76;75.47
63881;BME280;50046;46.672;11.152;2022-09-09T01:27:28;97851.66;;;18.78;75.47
63881;BME280;50046;46.672;11.152;2022-09-09T01:27:40;97843.94;;;18.80;75.52
63881;BME280;50046;46.672;11.152;2022-09-09T01:27:55;97847.47;;;18.81;75.49
63881;BME280;50046;46.672;11.152;2022-09-09T01:28:10;97857.31;;;18.82;75.31
63881;BME280;50046;46.672;11.152;2022-09-09T01:28:26;97842.19;;;18.84;75.57
63881;BME280;50046;46.672;11.152;2022-09-09T01:28:38;97846.38;;;18.82;75.45
63881;BME280;50046;46.672;11.152;2022-09-09T01:28:50;97850.56;;;18.79;75.69
63881;BME280;50046;46.672;11.152;2022-09-09T01:29:02;97853.28;;;18.79;75.83
63881;BME280;50046;46.672;11.152;2022-09-09T01:29:18;97846.84;;;18.75;75.87
63881;BME280;50046;46.672;11.152;2022-09-09T01:29:30;97851.78;;;18.73;75.95
63881;BME280;50046;46.672;11.152;2022-09-09T01:29:41;97852.13;;;18.72;76.27
63881;BME280;50046;46.672;11.152;2022-09-09T01:29:52;97858.59;;;18.76;76.01
63881;BME280;50046;46.672;11.152;2022-09-09T01:30:09;97850.38;;;18.76;76.30
63881;BME280;50046;46.672;11.152;2022-09-09T01:30:20;97849.28;;;18.77;76.20
63881;BME280;50046;46.672;11.152;2022-09-09T01:30:33;97848.94;;;18.78;76.07
63881;BME280;50046;46.672;11.152;2022-09-09T01:30:44;97846.69;;;18.80;76.39
63881;BME280;50046;46.672;11.152;2022-09-09T01:30:56;97854.88;;;18.80;76.46
63881;BME280;50046;46.672;11.152;2022-09-09T01:31:14;97851.03;;;18.81;76.35
63881;BME280;50046;46.672;11.152;2022-09-09T01:31:56;97849.41;;;18.80;75.91
63881;BME280;50046;46.672;11.152;2022-09-09T01:32:39;97844.44;;;18.82;76.07
63881;BME280;50046;46.672;11.152;2022-09-09T01:32:54;97845.53;;;18.81;76.46
63881;BME280;50046;46.672;11.152;2022-09-09T01:33:13;97847.19;;;18.82;76.31
63881;BME280;50046;46.672;11.152;2022-09-09T01:33:24;97851.50;;;18.83;76.59
63881;BME280;50046;46.672;11.152;2022-09-09T01:33:35;97841.38;;;18.84;76.73
63881;BME280;50046;46.672;11.152;2022-09-09T01:33:45;97849.56;;;18.84;76.70
63881;BME280;50046;46.672;11.152;2022-09-09T01:33:56;97843.78;;;18.85;76.45
63881;BME280;50046;46.672;11.152;2022-09-09T01:34:11;97840.41;;;18.88;76.03
63881;BME280;50046;46.672;11.152;2022-09-09T01:34:25;97849.25;;;18.85;76.16
63881;BME280;50046;46.672;11.152;2022-09-09T01:34:38;97845.88;;;18.88;76.12
63881;BME280;50046;46.672;11.152;2022-09-09T01:34:51;97838.81;;;18.87;75.74
63881;BME280;50046;46.672;11.152;2022-09-09T01:35:03;97845.06;;;18.88;75.88
63881;BME280;50046;46.672;11.152;2022-09-09T01:35:50;97846.06;;;18.92;75.24
63881;BME280;50046;46.672;11.152;2022-09-09T01:36:39;97843.78;;;19.03;75.20
63881;BME280;50046;46.672;11.152;2022-09-09T01:37:09;97847.19;;;19.00;74.93
63881;BME280;50046;46.672;11.152;2022-09-09T01:37:20;97843.94;;;18.98;75.14
63881;BME280;50046;46.672;11.152;2022-09-09T01:37:31;97841.53;;;18.96;75.42
63881;BME280;50046;46.672;11.152;2022-09-09T01:37:41;97839.94;;;18.95;75.50
63881;BME280;50046;46.672;11.152;2022-09-09T01:37:52;97841.88;;;18.95;75.54
63881;BME280;50046;46.672;11.152;2022-09-09T01:38:02;97835.09;;;18.92;75.46
63881;BME280;50046;46.672;11.152;2022-09-09T01:38:13;97839.75;;;18.92;75.18
63881;BME280;50046;46.672;11.152;2022-09-09T01:38:24;97844.13;;;18.93;75.58
63881;BME280;50046;46.672;11.152;2022-09-09T01:38:35;97847.50;;;18.89;75.51
63881;BME280;50046;46.672;11.152;2022-09-09T01:38:46;97847.50;;;18.89;75.34
63881;BME280;50046;46.672;11.152;2022-09-09T01:38:57;97845.22;;;18.92;75.53
63881;BME280;50046;46.672;11.152;2022-09-09T01:39:07;97847.16;;;18.91;75.63
63881;BME280;50046;46.672;11.152;2022-09-09T01:39:19;97846.69;;;18.98;75.28
63881;BME280;50046;46.672;11.152;2022-09-09T01:39:31;97842.66;;;19.04;74.79
63881;BME280;50046;46.672;11.152;2022-09-09T01:39:44;97840.72;;;19.04;74.92
63881;BME280;50046;46.672;11.152;2022-09-09T01:39:55;97843.31;;;19.01;74.47
63881;BME280;50046;46.672;11.152;2022-09-09T01:40:05;97847.19;;;19.00;74.72
63881;BME280;50046;46.672;11.152;2022-09-09T01:40:16;97846.03;;;19.01;74.82
63881;BME280;50046;46.672;11.152;2022-09-09T01:40:27;97847.19;;;19.00;74.96
63881;BME280;50046;46.672;11.152;2022-09-09T01:40:38;97847.19;;;19.00;74.98
63881;BME280;50046;46.672;11.152;2022-09-09T01:40:49;97847.97;;;19.00;74.97
63881;BME280;50046;46.672;11.152;2022-09-09T01:41:02;97846.03;;;19.01;75.42
63881;BME280;50046;46.672;11.152;2022-09-09T01:41:13;97847.97;;;19.00;75.75
63881;BME280;50046;46.672;11.152;2022-09-09T01:41:23;97854.25;;;19.01;75.60
63881;BME280;50046;46.672;11.152;2022-09-09T01:41:33;97852.00;;;19.03;76.19
63881;BME280;50046;46.672;11.152;2022-09-09T01:41:44;97855.53;;;19.03;76.20
63881;BME280;50046;46.672;11.152;2022-09-09T01:41:55;97853.94;;;19.02;76.34
63881;BME280;50046;46.672;11.152;2022-09-09T01:42:08;97853.44;;;19.00;76.10
63881;BME280;50046;46.672;11.152;2022-09-09T01:42:19;97854.25;;;19.01;76.58
63881;BME280;50046;46.672;11.152;2022-09-09T01:42:29;97854.25;;;19.01;76.71
63881;BME280;50046;46.672;11.152;2022-09-09T01:42:40;97855.84;;;19.02;77.23
63881;BME280;50046;46.672;11.152;2022-09-09T01:42:51;97858.91;;;19.00;76.97
63881;BME280;50046;46.672;11.152;2022-09-09T01:43:02;97861.97;;;18.99;77.02
63881;BME280;50046;46.672;11.152;2022-09-09T01:43:19;97863.09;;;18.98;77.19
63881;BME280;50046;46.672;11.152;2022-09-09T01:43:30;97857.16;;;18.96;77.24
63881;BME280;50046;46.672;11.152;2022-09-09T01:43:41;97861.03;;;18.95;77.16
63881;BME280;50046;46.672;11.152;2022-09-09T01:43:53;97864.22;;;18.97;77.56
63881;BME280;50046;46.672;11.152;2022-09-09T01:44:06;97861.47;;;18.97;77.65
63881;BME280;50046;46.672;11.152;2022-09-09T01:44:18;97861.81;;;18.95;77.66
63881;BME280;50046;46.672;11.152;2022-09-09T01:44:30;97862.13;;;18.94;77.67
63881;BME280;50046;46.672;11.152;2022-09-09T01:44:41;97863.91;;;18.89;77.34
63881;BME280;50046;46.672;11.152;2022-09-09T01:44:51;97858.44;;;18.89;77.65
63881;BME280;50046;46.672;11.152;2022-09-09T01:45:02;97863.91;;;18.89;77.50
63881;BME280;50046;46.672;11.152;2022-09-09T01:45:14;97860.03;;;18.90;77.66
63881;BME280;50046;46.672;11.152;2022-09-09T01:45:24;97856.16;;;18.92;77.18
63881;BME280;50046;46.672;11.152;2022-09-09T01:45:36;97861.63;;;18.92;77.24
63881;BME280;50046;46.672;11.152;2022-09-09T01:45:51;97867.94;;;18.92;77.41
63881;BME280;50046;46.672;11.152;2022-09-09T01:46:04;97862.78;;;18.90;77.39
63881;BME280;50046;46.672;11.152;2022-09-09T01:46:14;97864.38;;;18.92;77.44
63881;BME280;50046;46.672;11.152;2022-09-09T01:46:27;97861.63;;;18.92;77.57
63881;BME280;50046;46.672;11.152;2022-09-09T01:46:38;97863.28;;;18.93;77.71
63881;BME280;50046;46.672;11.152;2022-09-09T01:46:48;97864.88;;;18.94;77.66
63881;BME280;50046;46.672;11.152;2022-09-09T01:46:59;97863.28;;;18.93;77.39
63881;BME280;50046;46.672;11.152;2022-09-09T01:47:09;97857.78;;;18.93;77.20
63881;BME280;50046;46.672;11.152;2022-09-09T01:47:22;97859.72;;;18.92;77.45
63881;BME280;50046;46.672;11.152;2022-09-09T01:47:34;97865.22;;;18.92;77.21
63881;BME280;50046;46.672;11.152;2022-09-09T01:47:45;97864.06;;;18.93;77.17
63881;BME280;50046;46.672;11.152;2022-09-09T01:47:59;97864.38;;;18.92;76.76
63881;BME280;50046;46.672;11.152;2022-09-09T01:48:10;97863.09;;;18.89;76.77
63881;BME280;50046;46.672;11.152;2022-09-09T01:48:22;97863.44;;;18.87;76.52
63881;BME280;50046;46.672;11.152;2022-09-09T01:48:33;97855.88;;;18.84;76.55
63881;BME280;50046;46.672;11.152;2022-09-09T01:48:45;97859.91;;;18.87;76.97
63881;BME280;50046;46.672;11.152;2022-09-09T01:48:57;97860.19;;;18.85;76.68
63881;BME280;50046;46.672;11.152;2022-09-09T01:49:09;97855.03;;;18.84;76.58
63881;BME280;50046;46.672;11.152;2022-09-09T01:49:20;97856.19;;;18.83;76.94
63881;BME280;50046;46.672;11.152;2022-09-09T01:49:30;97861.66;;;18.83;77.22
63881;BME280;50046;46.672;11.152;2022-09-09T01:49:42;97858.59;;;18.84;77.14
63881;BME280;50046;46.672;11.152;2022-09-09T01:49:53;97854.72;;;18.85;77.21
63881;BME280;50046;46.672;11.152;2022-09-09T01:50:03;97852.00;;;18.85;76.82
63881;BME280;50046;46.672;11.152;2022-09-09T01:50:16;97854.25;;;18.83;76.82
63881;BME280;50046;46.672;11.152;2022-09-09T01:50:27;97857.47;;;18.85;77.11
63881;BME280;50046;46.672;11.152;2022-09-09T01:50:37;97857.47;;;18.85;76.98
63881;BME280;50046;46.672;11.152;2022-09-09T01:50:48;97853.13;;;18.84;76.70
63881;BME280;50046;46.672;11.152;2022-09-09T01:50:58;97852.00;;;18.85;77.09
63881;BME280;50046;46.672;11.152;2022-09-09T01:51:09;97856.03;;;18.88;76.90
63881;BME280;50046;46.672;11.152;2022-09-09T01:51:21;97852.16;;;18.89;76.88
63881;BME280;50046;46.672;11.152;2022-09-09T01:51:31;97857.63;;;18.89;76.75
63881;BME280;50046;46.672;11.152;2022-09-09T01:51:42;97854.09;;;18.88;76.57
63881;BME280;50046;46.672;11.152;2022-09-09T01:51:55;97855.72;;;18.89;76.48
63881;BME280;50046;46.672;11.152;2022-09-09T01:52:06;97857.63;;;18.89;76.43